sensor_id;sensor_type;location;lat;lon;timestamp;temperature;humidity
41294;DHT22;27037;52.010;4.446;2023-05-07T00:02:25;15.40;99.90
41294;DHT22;27037;52.010;4.446;2023-05-07T00:04:51;15.50;99.90
41294;DHT22;27037;52.010;4.446;2023-05-07T00:07:17;15.40;99.90
41294;DHT22;27037;52.010;4.446;2023-05-07T00:09:43;15.40;99.90
41294;DHT22;27037;52.010;4.446;2023-05-07T00:12:08;15.40;99.90
41294;DHT22;27037;52.010;4.446;2023-05-07T00:14:34;15.40;99.90
41294;DHT22;27037;52.010;4.446;2023-05-07T00:17:00;15.40;99.90
41294;DHT22;27037;52.010;4.446;2023-05-07T00:19:25;15.40;99.90
41294;DHT22;27037;52.010;4.446;2023-05-07T00:21:51;15.30;99.90
41294;DHT22;27037;52.010;4.446;2023-05-07T00:24:19;15.40;99.90
41294;DHT22;27037;52.010;4.446;2023-05-07T00:26:44;15.30;99.90
41294;DHT22;27037;52.010;4.446;2023-05-07T00:29:10;15.30;99.90
41294;DHT22;27037;52.010;4.446;2023-05-07T00:31:35;15.30;99.90
41294;DHT22;27037;52.010;4.446;2023-05-07T00:34:01;15.30;99.90
41294;DHT22;27037;52.010;4.446;2023-05-07T00:36:27;15.30;99.90
41294;DHT22;27037;52.010;4.446;2023-05-07T00:38:53;15.20;99.90
41294;DHT22;27037;52.010;4.446;2023-05-07T00:41:19;15.20;99.90
41294;DHT22;27037;52.010;4.446;2023-05-07T00:43:45;15.20;99.90
41294;DHT22;27037;52.010;4.446;2023-05-07T00:46:10;15.20;99.90
41294;DHT22;27037;52.010;4.446;2023-05-07T00:48:37;15.20;99.90
41294;DHT22;27037;52.010;4.446;2023-05-07T00:51:03;15.20;99.90
41294;DHT22;27037;52.010;4.446;2023-05-07T00:53:29;15.10;99.90
41294;DHT22;27037;52.010;4.446;2023-05-07T00:55:55;15.10;99.90
41294;DHT22;27037;52.010;4.446;2023-05-07T00:58:21;15.10;99.90
41294;DHT22;27037;52.010;4.446;2023-05-07T01:00:47;15.10;99.90
41294;DHT22;27037;52.010;4.446;2023-05-07T01:03:12;15.10;99.90
41294;DHT22;27037;52.010;4.446;2023-05-07T01:05:38;15.10;99.90
41294;DHT22;27037;52.010;4.446;2023-05-07T01:08:04;15.10;99.90
41294;DHT22;27037;52.010;4.446;2023-05-07T01:10:30;15.00;99.90
41294;DHT22;27037;52.010;4.446;2023-05-07T01:12:57;15.10;99.90
41294;DHT22;27037;52.010;4.446;2023-05-07T01:15:24;15.00;99.90
41294;DHT22;27037;52.010;4.446;2023-05-07T01:17:49;15.00;99.90
41294;DHT22;27037;52.010;4.446;2023-05-07T01:20:15;15.00;99.90
41294;DHT22;27037;52.010;4.446;2023-05-07T01:22:41;15.00;99.90
41294;DHT22;27037;52.010;4.446;2023-05-07T01:25:08;15.00;99.90
41294;DHT22;27037;52.010;4.446;2023-05-07T01:27:34;15.00;99.90
41294;DHT22;27037;52.010;4.446;2023-05-07T01:30:02;14.90;99.90
41294;DHT22;27037;52.010;4.446;2023-05-07T01:33:21;14.90;99.90
41294;DHT22;27037;52.010;4.446;2023-05-07T01:35:25;14.90;99.90
41294;DHT22;27037;52.010;4.446;2023-05-07T01:37:52;14.90;99.90
41294;DHT22;27037;52.010;4.446;2023-05-07T01:40:18;14.80;99.90
41294;DHT22;27037;52.010;4.446;2023-05-07T01:42:44;14.80;99.90
41294;DHT22;27037;52.010;4.446;2023-05-07T01:45:11;14.80;99.90
41294;DHT22;27037;52.010;4.446;2023-05-07T01:47:37;14.80;99.90
41294;DHT22;27037;52.010;4.446;2023-05-07T01:50:05;14.80;99.90
41294;DHT22;27037;52.010;4.446;2023-05-07T01:52:31;14.80;99.90
41294;DHT22;27037;52.010;4.446;2023-05-07T01:54:57;14.80;99.90
41294;DHT22;27037;52.010;4.446;2023-05-07T01:57:22;14.80;99.90
41294;DHT22;27037;52.010;4.446;2023-05-07T01:59:48;14.80;99.90
41294;DHT22;27037;52.010;4.446;2023-05-07T02:02:14;14.80;99.90
41294;DHT22;27037;52.010;4.446;2023-05-07T02:04:39;14.80;99.90
41294;DHT22;27037;52.010;4.446;2023-05-07T02:07:05;14.80;99.90
41294;DHT22;27037;52.010;4.446;2023-05-07T02:09:31;14.80;99.90
41294;DHT22;27037;52.010;4.446;2023-05-07T02:11:56;14.80;99.90
41294;DHT22;27037;52.010;4.446;2023-05-07T02:14:22;14.90;99.90
41294;DHT22;27037;52.010;4.446;2023-05-07T02:16:48;14.90;99.90
41294;DHT22;27037;52.010;4.446;2023-05-07T02:19:13;14.90;99.90
41294;DHT22;27037;52.010;4.446;2023-05-07T02:21:39;14.90;99.90
41294;DHT22;27037;52.010;4.446;2023-05-07T02:24:05;14.90;99.90
41294;DHT22;27037;52.010;4.446;2023-05-07T02:26:30;14.90;99.90
41294;DHT22;27037;52.010;4.446;2023-05-07T02:28:56;14.90;99.90
41294;DHT22;27037;52.010;4.446;2023-05-07T02:31:21;14.90;99.90
41294;DHT22;27037;52.010;4.446;2023-05-07T02:33:47;14.90;99.90
41294;DHT22;27037;52.010;4.446;2023-05-07T02:36:13;14.90;99.90
41294;DHT22;27037;52.010;4.446;2023-05-07T02:38:38;14.90;99.90
41294;DHT22;27037;52.010;4.446;2023-05-07T02:41:04;14.90;99.90
41294;DHT22;27037;52.010;4.446;2023-05-07T02:43:30;14.90;99.90
41294;DHT22;27037;52.010;4.446;2023-05-07T02:46:05;14.90;99.90
41294;DHT22;27037;52.010;4.446;2023-05-07T02:48:31;14.90;99.90
41294;DHT22;27037;52.010;4.446;2023-05-07T02:50:57;14.90;99.90
41294;DHT22;27037;52.010;4.446;2023-05-07T02:53:23;14.90;99.90
41294;DHT22;27037;52.010;4.446;2023-05-07T02:55:51;14.90;99.90
41294;DHT22;27037;52.010;4.446;2023-05-07T02:58:17;14.90;99.90
41294;DHT22;27037;52.010;4.446;2023-05-07T03:00:43;14.90;99.90
41294;DHT22;27037;52.010;4.446;2023-05-07T03:03:08;14.90;99.90
41294;DHT22;27037;52.010;4.446;2023-05-07T03:05:34;14.90;99.90
41294;DHT22;27037;52.010;4.446;2023-05-07T03:07:59;14.90;99.90
41294;DHT22;27037;52.010;4.446;2023-05-07T03:10:25;14.90;99.90
41294;DHT22;27037;52.010;4.446;2023-05-07T03:12:50;14.90;99.90
41294;DHT22;27037;52.010;4.446;2023-05-07T03:15:16;14.90;99.90
41294;DHT22;27037;52.010;4.446;2023-05-07T03:17:42;14.90;99.90
41294;DHT22;27037;52.010;4.446;2023-05-07T03:20:08;14.90;99.90
41294;DHT22;27037;52.010;4.446;2023-05-07T03:22:34;14.90;99.90
41294;DHT22;27037;52.010;4.446;2023-05-07T03:25:00;14.90;99.90
41294;DHT22;27037;52.010;4.446;2023-05-07T03:27:26;15.00;99.90
41294;DHT22;27037;52.010;4.446;2023-05-07T03:29:51;14.90;99.90
41294;DHT22;27037;52.010;4.446;2023-05-07T03:32:17;14.90;99.90
41294;DHT22;27037;52.010;4.446;2023-05-07T03:34:42;15.00;99.90
41294;DHT22;27037;52.010;4.446;2023-05-07T03:37:08;15.00;99.90
41294;DHT22;27037;52.010;4.446;2023-05-07T03:39:34;14.90;99.90
41294;DHT22;27037;52.010;4.446;2023-05-07T03:41:59;15.00;99.90
41294;DHT22;27037;52.010;4.446;2023-05-07T03:44:26;14.90;99.90
41294;DHT22;27037;52.010;4.446;2023-05-07T03:46:51;15.00;99.90
41294;DHT22;27037;52.010;4.446;2023-05-07T03:49:17;14.90;99.90
41294;DHT22;27037;52.010;4.446;2023-05-07T03:51:42;15.00;99.90
41294;DHT22;27037;52.010;4.446;2023-05-07T03:54:08;14.90;99.90
41294;DHT22;27037;52.010;4.446;2023-05-07T03:56:34;14.90;99.90
41294;DHT22;27037;52.010;4.446;2023-05-07T03:59:00;14.90;99.90
41294;DHT22;27037;52.010;4.446;2023-05-07T04:01:26;14.90;99.90
41294;DHT22;27037;52.010;4.446;2023-05-07T04:03:52;14.90;99.90
41294;DHT22;27037;52.010;4.446;2023-05-07T04:06:18;14.90;99.90
41294;DHT22;27037;52.010;4.446;2023-05-07T04:08:43;14.90;99.90
41294;DHT22;27037;52.010;4.446;2023-05-07T04:11:09;14.90;99.90
41294;DHT22;27037;52.010;4.446;2023-05-07T04:13:35;14.90;99.90
41294;DHT22;27037;52.010;4.446;2023-05-07T04:16:04;14.90;99.90
41294;DHT22;27037;52.010;4.446;2023-05-07T04:18:30;14.90;99.90
41294;DHT22;27037;52.010;4.446;2023-05-07T04:20:55;14.90;99.90
41294;DHT22;27037;52.010;4.446;2023-05-07T04:23:21;15.00;99.90
41294;DHT22;27037;52.010;4.446;2023-05-07T04:25:47;15.00;99.90
41294;DHT22;27037;52.010;4.446;2023-05-07T04:28:12;15.00;99.90
41294;DHT22;27037;52.010;4.446;2023-05-07T04:30:38;15.00;99.90
41294;DHT22;27037;52.010;4.446;2023-05-07T04:33:04;15.00;99.90
41294;DHT22;27037;52.010;4.446;2023-05-07T04:35:31;15.00;99.90
41294;DHT22;27037;52.010;4.446;2023-05-07T04:37:56;15.00;99.90
41294;DHT22;27037;52.010;4.446;2023-05-07T04:40:22;15.00;99.90
41294;DHT22;27037;52.010;4.446;2023-05-07T04:42:47;15.00;99.90
41294;DHT22;27037;52.010;4.446;2023-05-07T04:45:13;15.00;99.90
41294;DHT22;27037;52.010;4.446;2023-05-07T04:47:39;15.00;99.90
41294;DHT22;27037;52.010;4.446;2023-05-07T04:50:06;15.00;99.90
41294;DHT22;27037;52.010;4.446;2023-05-07T04:52:33;15.00;99.90
41294;DHT22;27037;52.010;4.446;2023-05-07T04:55:01;15.00;99.90
41294;DHT22;27037;52.010;4.446;2023-05-07T04:57:27;15.00;99.90
41294;DHT22;27037;52.010;4.446;2023-05-07T04:59:53;15.00;99.90
41294;DHT22;27037;52.010;4.446;2023-05-07T05:02:19;15.00;99.90
41294;DHT22;27037;52.010;4.446;2023-05-07T05:04:47;15.10;99.90
41294;DHT22;27037;52.010;4.446;2023-05-07T05:07:12;15.10;99.90
41294;DHT22;27037;52.010;4.446;2023-05-07T05:09:38;15.10;99.90
41294;DHT22;27037;52.010;4.446;2023-05-07T05:12:04;15.10;99.90
41294;DHT22;27037;52.010;4.446;2023-05-07T05:14:32;15.10;99.90
41294;DHT22;27037;52.010;4.446;2023-05-07T05:16:58;15.10;99.90
41294;DHT22;27037;52.010;4.446;2023-05-07T05:19:23;15.10;99.90
41294;DHT22;27037;52.010;4.446;2023-05-07T05:21:49;15.20;99.90
41294;DHT22;27037;52.010;4.446;2023-05-07T05:24:14;15.20;99.90
41294;DHT22;27037;52.010;4.446;2023-05-07T05:26:40;15.20;99.90
41294;DHT22;27037;52.010;4.446;2023-05-07T05:29:06;15.20;99.90
41294;DHT22;27037;52.010;4.446;2023-05-07T05:31:33;15.20;99.90
41294;DHT22;27037;52.010;4.446;2023-05-07T05:33:58;15.20;99.90
41294;DHT22;27037;52.010;4.446;2023-05-07T05:36:24;15.20;99.90
41294;DHT22;27037;52.010;4.446;2023-05-07T05:38:50;15.30;99.90
41294;DHT22;27037;52.010;4.446;2023-05-07T05:41:15;15.30;99.90
41294;DHT22;27037;52.010;4.446;2023-05-07T05:43:41;15.30;99.90
41294;DHT22;27037;52.010;4.446;2023-05-07T05:46:06;15.30;99.90
41294;DHT22;27037;52.010;4.446;2023-05-07T05:48:34;15.40;99.90
41294;DHT22;27037;52.010;4.446;2023-05-07T05:51:00;15.40;99.90
41294;DHT22;27037;52.010;4.446;2023-05-07T05:53:25;15.40;99.90
41294;DHT22;27037;52.010;4.446;2023-05-07T05:55:51;15.40;99.90
41294;DHT22;27037;52.010;4.446;2023-05-07T05:58:17;15.50;99.90
41294;DHT22;27037;52.010;4.446;2023-05-07T06:00:43;15.50;99.90
41294;DHT22;27037;52.010;4.446;2023-05-07T06:03:09;15.60;99.90
41294;DHT22;27037;52.010;4.446;2023-05-07T06:05:35;15.60;99.90
41294;DHT22;27037;52.010;4.446;2023-05-07T06:08:02;15.60;99.90
41294;DHT22;27037;52.010;4.446;2023-05-07T06:10:28;15.60;99.90
41294;DHT22;27037;52.010;4.446;2023-05-07T06:12:55;15.70;99.90
41294;DHT22;27037;52.010;4.446;2023-05-07T06:15:21;15.80;99.90
41294;DHT22;27037;52.010;4.446;2023-05-07T06:17:46;15.80;99.90
41294;DHT22;27037;52.010;4.446;2023-05-07T06:20:12;15.90;99.90
41294;DHT22;27037;52.010;4.446;2023-05-07T06:22:37;16.00;99.90
41294;DHT22;27037;52.010;4.446;2023-05-07T06:25:04;16.00;99.90
41294;DHT22;27037;52.010;4.446;2023-05-07T06:27:30;16.00;99.90
41294;DHT22;27037;52.010;4.446;2023-05-07T06:29:56;16.10;99.90
41294;DHT22;27037;52.010;4.446;2023-05-07T06:32:22;16.10;99.90
41294;DHT22;27037;52.010;4.446;2023-05-07T06:34:48;16.10;99.90
41294;DHT22;27037;52.010;4.446;2023-05-07T06:37:13;16.10;99.90
41294;DHT22;27037;52.010;4.446;2023-05-07T06:39:39;16.10;99.90
41294;DHT22;27037;52.010;4.446;2023-05-07T06:42:05;16.10;99.90
41294;DHT22;27037;52.010;4.446;2023-05-07T06:44:31;16.20;99.90
41294;DHT22;27037;52.010;4.446;2023-05-07T06:46:57;16.20;99.90
41294;DHT22;27037;52.010;4.446;2023-05-07T06:49:22;16.20;99.90
41294;DHT22;27037;52.010;4.446;2023-05-07T06:51:48;16.10;99.90
41294;DHT22;27037;52.010;4.446;2023-05-07T06:54:14;16.10;99.90
41294;DHT22;27037;52.010;4.446;2023-05-07T06:56:39;16.20;99.90
41294;DHT22;27037;52.010;4.446;2023-05-07T06:59:06;16.10;99.90
41294;DHT22;27037;52.010;4.446;2023-05-07T07:01:31;16.20;99.90
41294;DHT22;27037;52.010;4.446;2023-05-07T07:03:57;16.10;99.90
41294;DHT22;27037;52.010;4.446;2023-05-07T07:06:23;16.20;99.90
41294;DHT22;27037;52.010;4.446;2023-05-07T07:08:48;16.30;99.90
41294;DHT22;27037;52.010;4.446;2023-05-07T07:11:15;16.30;99.90
41294;DHT22;27037;52.010;4.446;2023-05-07T07:13:41;16.40;99.90
41294;DHT22;27037;52.010;4.446;2023-05-07T07:16:06;16.50;99.90
41294;DHT22;27037;52.010;4.446;2023-05-07T07:18:32;16.60;99.90
41294;DHT22;27037;52.010;4.446;2023-05-07T07:20:58;16.70;99.90
41294;DHT22;27037;52.010;4.446;2023-05-07T07:23:24;16.80;99.90
41294;DHT22;27037;52.010;4.446;2023-05-07T07:25:50;16.80;99.90
41294;DHT22;27037;52.010;4.446;2023-05-07T07:28:16;16.90;99.90
41294;DHT22;27037;52.010;4.446;2023-05-07T07:30:42;17.00;99.90
41294;DHT22;27037;52.010;4.446;2023-05-07T07:33:08;17.00;99.90
41294;DHT22;27037;52.010;4.446;2023-05-07T07:35:33;17.10;99.90
41294;DHT22;27037;52.010;4.446;2023-05-07T07:37:59;17.20;99.90
41294;DHT22;27037;52.010;4.446;2023-05-07T07:40:25;17.30;99.90
41294;DHT22;27037;52.010;4.446;2023-05-07T07:42:54;17.30;99.90
41294;DHT22;27037;52.010;4.446;2023-05-07T07:45:20;17.50;99.90
41294;DHT22;27037;52.010;4.446;2023-05-07T07:47:45;17.50;99.90
41294;DHT22;27037;52.010;4.446;2023-05-07T07:50:11;17.60;99.90
41294;DHT22;27037;52.010;4.446;2023-05-07T07:52:37;17.60;99.90
41294;DHT22;27037;52.010;4.446;2023-05-07T07:55:03;17.80;99.90
41294;DHT22;27037;52.010;4.446;2023-05-07T07:57:29;17.90;99.90
41294;DHT22;27037;52.010;4.446;2023-05-07T07:59:55;18.00;99.90
41294;DHT22;27037;52.010;4.446;2023-05-07T08:02:21;18.10;99.90
41294;DHT22;27037;52.010;4.446;2023-05-07T08:04:46;18.20;99.90
41294;DHT22;27037;52.010;4.446;2023-05-07T08:07:13;18.30;99.90
41294;DHT22;27037;52.010;4.446;2023-05-07T08:09:39;18.40;99.90
41294;DHT22;27037;52.010;4.446;2023-05-07T08:12:06;18.50;99.90
41294;DHT22;27037;52.010;4.446;2023-05-07T08:14:32;18.60;99.90
41294;DHT22;27037;52.010;4.446;2023-05-07T08:16:58;18.60;99.90
41294;DHT22;27037;52.010;4.446;2023-05-07T08:19:24;18.70;99.90
41294;DHT22;27037;52.010;4.446;2023-05-07T08:21:50;18.70;99.90
41294;DHT22;27037;52.010;4.446;2023-05-07T08:24:16;18.70;99.90
41294;DHT22;27037;52.010;4.446;2023-05-07T08:26:42;18.80;99.90
41294;DHT22;27037;52.010;4.446;2023-05-07T08:29:08;18.70;99.90
41294;DHT22;27037;52.010;4.446;2023-05-07T08:31:34;18.80;99.90
41294;DHT22;27037;52.010;4.446;2023-05-07T08:33:59;18.80;99.90
41294;DHT22;27037;52.010;4.446;2023-05-07T08:36:25;18.80;99.90
41294;DHT22;27037;52.010;4.446;2023-05-07T08:38:51;18.90;99.90
41294;DHT22;27037;52.010;4.446;2023-05-07T08:41:17;18.90;99.90
41294;DHT22;27037;52.010;4.446;2023-05-07T08:43:47;19.00;99.90
41294;DHT22;27037;52.010;4.446;2023-05-07T08:46:17;19.10;99.90
41294;DHT22;27037;52.010;4.446;2023-05-07T08:48:44;19.10;99.90
41294;DHT22;27037;52.010;4.446;2023-05-07T08:51:12;19.20;99.90
41294;DHT22;27037;52.010;4.446;2023-05-07T08:53:41;19.40;99.90
41294;DHT22;27037;52.010;4.446;2023-05-07T08:56:08;19.60;99.90
41294;DHT22;27037;52.010;4.446;2023-05-07T08:58:34;19.70;99.90
41294;DHT22;27037;52.010;4.446;2023-05-07T09:01:03;19.80;99.90
41294;DHT22;27037;52.010;4.446;2023-05-07T09:03:32;20.00;99.90
41294;DHT22;27037;52.010;4.446;2023-05-07T09:05:57;20.10;99.90
41294;DHT22;27037;52.010;4.446;2023-05-07T09:08:27;20.20;99.90
41294;DHT22;27037;52.010;4.446;2023-05-07T09:10:53;20.30;99.90
41294;DHT22;27037;52.010;4.446;2023-05-07T09:13:19;20.40;99.90
41294;DHT22;27037;52.010;4.446;2023-05-07T09:15:45;20.50;99.90
41294;DHT22;27037;52.010;4.446;2023-05-07T09:18:11;20.60;99.90
41294;DHT22;27037;52.010;4.446;2023-05-07T09:20:37;20.80;99.90
41294;DHT22;27037;52.010;4.446;2023-05-07T09:23:03;20.90;99.90
41294;DHT22;27037;52.010;4.446;2023-05-07T09:25:30;21.10;99.90
41294;DHT22;27037;52.010;4.446;2023-05-07T09:27:56;21.20;99.90
41294;DHT22;27037;52.010;4.446;2023-05-07T09:30:22;21.20;99.90
41294;DHT22;27037;52.010;4.446;2023-05-07T09:32:48;21.20;99.90
41294;DHT22;27037;52.010;4.446;2023-05-07T09:35:17;21.20;99.90
41294;DHT22;27037;52.010;4.446;2023-05-07T09:37:43;21.20;99.90
41294;DHT22;27037;52.010;4.446;2023-05-07T09:40:23;21.20;99.90
41294;DHT22;27037;52.010;4.446;2023-05-07T09:42:50;21.30;99.90
41294;DHT22;27037;52.010;4.446;2023-05-07T09:45:26;21.20;99.90
41294;DHT22;27037;52.010;4.446;2023-05-07T09:47:55;21.10;99.90
41294;DHT22;27037;52.010;4.446;2023-05-07T09:50:36;21.10;99.90
41294;DHT22;27037;52.010;4.446;2023-05-07T09:53:03;21.20;99.90
41294;DHT22;27037;52.010;4.446;2023-05-07T09:55:29;21.20;99.90
41294;DHT22;27037;52.010;4.446;2023-05-07T09:57:55;21.30;99.90
41294;DHT22;27037;52.010;4.446;2023-05-07T10:00:22;21.30;99.90
41294;DHT22;27037;52.010;4.446;2023-05-07T10:02:51;21.30;99.90
41294;DHT22;27037;52.010;4.446;2023-05-07T10:05:21;21.30;99.90
41294;DHT22;27037;52.010;4.446;2023-05-07T10:07:47;21.20;99.90
41294;DHT22;27037;52.010;4.446;2023-05-07T10:10:14;21.20;99.90
41294;DHT22;27037;52.010;4.446;2023-05-07T10:12:41;21.20;99.90
41294;DHT22;27037;52.010;4.446;2023-05-07T10:15:07;21.20;99.90
41294;DHT22;27037;52.010;4.446;2023-05-07T10:17:38;21.30;99.90
41294;DHT22;27037;52.010;4.446;2023-05-07T10:20:08;21.50;99.90
41294;DHT22;27037;52.010;4.446;2023-05-07T10:22:54;21.70;99.90
41294;DHT22;27037;52.010;4.446;2023-05-07T10:25:24;21.90;99.90
41294;DHT22;27037;52.010;4.446;2023-05-07T10:27:51;22.20;99.90
41294;DHT22;27037;52.010;4.446;2023-05-07T10:30:32;22.50;99.90
41294;DHT22;27037;52.010;4.446;2023-05-07T10:33:03;22.70;99.90
41294;DHT22;27037;52.010;4.446;2023-05-07T10:35:37;22.70;99.90
41294;DHT22;27037;52.010;4.446;2023-05-07T10:38:04;22.70;99.90
41294;DHT22;27037;52.010;4.446;2023-05-07T10:40:30;22.80;99.90
41294;DHT22;27037;52.010;4.446;2023-05-07T10:42:58;22.80;99.90
41294;DHT22;27037;52.010;4.446;2023-05-07T10:45:27;22.70;99.90
41294;DHT22;27037;52.010;4.446;2023-05-07T10:48:14;22.60;99.90
41294;DHT22;27037;52.010;4.446;2023-05-07T10:50:41;22.60;99.90
41294;DHT22;27037;52.010;4.446;2023-05-07T10:55:50;22.50;99.90
41294;DHT22;27037;52.010;4.446;2023-05-07T10:58:22;22.50;99.90
41294;DHT22;27037;52.010;4.446;2023-05-07T11:00:49;22.50;99.90
41294;DHT22;27037;52.010;4.446;2023-05-07T11:03:14;22.40;99.90
41294;DHT22;27037;52.010;4.446;2023-05-07T11:05:41;22.40;99.90
41294;DHT22;27037;52.010;4.446;2023-05-07T11:08:08;22.40;99.90
41294;DHT22;27037;52.010;4.446;2023-05-07T11:13:18;22.50;99.90
41294;DHT22;27037;52.010;4.446;2023-05-07T11:15:46;22.60;99.90
41294;DHT22;27037;52.010;4.446;2023-05-07T11:18:16;22.60;99.90
41294;DHT22;27037;52.010;4.446;2023-05-07T11:20:58;22.70;99.90
41294;DHT22;27037;52.010;4.446;2023-05-07T11:28:30;22.80;99.90
41294;DHT22;27037;52.010;4.446;2023-05-07T11:30:56;22.80;99.90
41294;DHT22;27037;52.010;4.446;2023-05-07T11:33:22;22.90;99.90
41294;DHT22;27037;52.010;4.446;2023-05-07T11:35:52;23.00;99.90
41294;DHT22;27037;52.010;4.446;2023-05-07T11:38:18;23.00;99.90
41294;DHT22;27037;52.010;4.446;2023-05-07T11:41:02;23.00;99.90
41294;DHT22;27037;52.010;4.446;2023-05-07T11:43:31;22.90;99.90
41294;DHT22;27037;52.010;4.446;2023-05-07T11:46:08;22.80;99.90
41294;DHT22;27037;52.010;4.446;2023-05-07T11:48:34;22.70;99.90
41294;DHT22;27037;52.010;4.446;2023-05-07T11:51:07;22.70;99.90
41294;DHT22;27037;52.010;4.446;2023-05-07T11:53:39;22.70;99.90
41294;DHT22;27037;52.010;4.446;2023-05-07T11:56:09;22.70;99.90
41294;DHT22;27037;52.010;4.446;2023-05-07T11:58:35;22.70;99.90
41294;DHT22;27037;52.010;4.446;2023-05-07T12:01:01;22.70;99.90
41294;DHT22;27037;52.010;4.446;2023-05-07T12:03:27;22.70;99.90
41294;DHT22;27037;52.010;4.446;2023-05-07T12:05:53;22.60;99.90
41294;DHT22;27037;52.010;4.446;2023-05-07T12:08:20;22.50;99.90
41294;DHT22;27037;52.010;4.446;2023-05-07T12:10:48;22.40;99.90
41294;DHT22;27037;52.010;4.446;2023-05-07T12:13:18;22.30;99.90
41294;DHT22;27037;52.010;4.446;2023-05-07T12:15:44;22.20;99.90
41294;DHT22;27037;52.010;4.446;2023-05-07T12:18:13;22.00;99.90
41294;DHT22;27037;52.010;4.446;2023-05-07T12:20:40;21.80;99.90
41294;DHT22;27037;52.010;4.446;2023-05-07T12:23:05;21.50;99.90
41294;DHT22;27037;52.010;4.446;2023-05-07T12:25:36;21.30;99.90
41294;DHT22;27037;52.010;4.446;2023-05-07T12:28:02;21.00;99.90
41294;DHT22;27037;52.010;4.446;2023-05-07T12:30:31;20.80;99.90
41294;DHT22;27037;52.010;4.446;2023-05-07T12:32:57;20.60;99.90
41294;DHT22;27037;52.010;4.446;2023-05-07T12:35:30;20.50;99.90
41294;DHT22;27037;52.010;4.446;2023-05-07T12:37:57;20.30;99.90
41294;DHT22;27037;52.010;4.446;2023-05-07T12:40:35;20.20;99.90
41294;DHT22;27037;52.010;4.446;2023-05-07T12:43:00;20.10;99.90
41294;DHT22;27037;52.010;4.446;2023-05-07T12:45:26;19.90;99.90
41294;DHT22;27037;52.010;4.446;2023-05-07T12:47:52;19.90;99.90
41294;DHT22;27037;52.010;4.446;2023-05-07T12:50:17;19.80;99.90
41294;DHT22;27037;52.010;4.446;2023-05-07T12:52:47;19.70;99.90
41294;DHT22;27037;52.010;4.446;2023-05-07T12:55:16;19.70;99.90
41294;DHT22;27037;52.010;4.446;2023-05-07T12:57:45;19.50;99.90
41294;DHT22;27037;52.010;4.446;2023-05-07T13:00:13;19.40;99.90
41294;DHT22;27037;52.010;4.446;2023-05-07T13:02:40;19.40;99.90
41294;DHT22;27037;52.010;4.446;2023-05-07T13:05:07;19.30;99.90
41294;DHT22;27037;52.010;4.446;2023-05-07T13:07:33;19.20;99.90
41294;DHT22;27037;52.010;4.446;2023-05-07T13:09:58;19.20;99.90
41294;DHT22;27037;52.010;4.446;2023-05-07T13:12:24;19.00;99.90
41294;DHT22;27037;52.010;4.446;2023-05-07T13:14:49;18.90;99.90
41294;DHT22;27037;52.010;4.446;2023-05-07T13:17:15;18.90;99.90
41294;DHT22;27037;52.010;4.446;2023-05-07T13:19:40;18.90;99.90
41294;DHT22;27037;52.010;4.446;2023-05-07T13:22:06;18.90;99.90
41294;DHT22;27037;52.010;4.446;2023-05-07T13:24:32;18.90;99.90
41294;DHT22;27037;52.010;4.446;2023-05-07T13:26:57;18.90;99.90
41294;DHT22;27037;52.010;4.446;2023-05-07T13:29:23;19.00;99.90
41294;DHT22;27037;52.010;4.446;2023-05-07T13:31:56;19.10;99.90
41294;DHT22;27037;52.010;4.446;2023-05-07T13:34:22;19.10;99.90
41294;DHT22;27037;52.010;4.446;2023-05-07T13:36:48;19.00;99.90
41294;DHT22;27037;52.010;4.446;2023-05-07T13:39:13;19.00;99.90
41294;DHT22;27037;52.010;4.446;2023-05-07T13:41:39;19.00;99.90
41294;DHT22;27037;52.010;4.446;2023-05-07T13:44:05;19.00;99.90
41294;DHT22;27037;52.010;4.446;2023-05-07T13:46:30;19.10;99.90
41294;DHT22;27037;52.010;4.446;2023-05-07T13:48:56;19.10;99.90
41294;DHT22;27037;52.010;4.446;2023-05-07T13:51:22;19.10;99.90
41294;DHT22;27037;52.010;4.446;2023-05-07T13:53:48;19.00;99.90
41294;DHT22;27037;52.010;4.446;2023-05-07T13:56:14;19.00;99.90
41294;DHT22;27037;52.010;4.446;2023-05-07T13:58:40;19.00;99.90
41294;DHT22;27037;52.010;4.446;2023-05-07T14:01:05;19.00;99.90
41294;DHT22;27037;52.010;4.446;2023-05-07T14:03:31;19.00;99.90
41294;DHT22;27037;52.010;4.446;2023-05-07T14:05:59;19.00;99.90
41294;DHT22;27037;52.010;4.446;2023-05-07T14:08:25;19.10;99.90
41294;DHT22;27037;52.010;4.446;2023-05-07T14:10:51;19.10;99.90
41294;DHT22;27037;52.010;4.446;2023-05-07T14:13:17;19.10;99.90
41294;DHT22;27037;52.010;4.446;2023-05-07T14:15:43;19.10;99.90
41294;DHT22;27037;52.010;4.446;2023-05-07T14:18:12;19.20;99.90
41294;DHT22;27037;52.010;4.446;2023-05-07T14:20:38;19.30;99.90
41294;DHT22;27037;52.010;4.446;2023-05-07T14:23:04;19.30;99.90
41294;DHT22;27037;52.010;4.446;2023-05-07T14:25:29;19.30;99.90
41294;DHT22;27037;52.010;4.446;2023-05-07T14:27:55;19.30;99.90
41294;DHT22;27037;52.010;4.446;2023-05-07T14:30:22;19.40;99.90
41294;DHT22;27037;52.010;4.446;2023-05-07T14:32:50;19.40;99.90
41294;DHT22;27037;52.010;4.446;2023-05-07T14:35:16;19.40;99.90
41294;DHT22;27037;52.010;4.446;2023-05-07T14:37:41;19.40;99.90
41294;DHT22;27037;52.010;4.446;2023-05-07T14:40:07;19.40;99.90
41294;DHT22;27037;52.010;4.446;2023-05-07T14:42:33;19.40;99.90
41294;DHT22;27037;52.010;4.446;2023-05-07T14:44:59;19.40;99.90
41294;DHT22;27037;52.010;4.446;2023-05-07T14:47:24;19.40;99.90
41294;DHT22;27037;52.010;4.446;2023-05-07T14:49:50;19.40;99.90
41294;DHT22;27037;52.010;4.446;2023-05-07T14:52:16;19.40;99.90
41294;DHT22;27037;52.010;4.446;2023-05-07T14:54:42;19.30;99.90
41294;DHT22;27037;52.010;4.446;2023-05-07T14:57:09;19.30;99.90
41294;DHT22;27037;52.010;4.446;2023-05-07T14:59:35;19.20;99.90
41294;DHT22;27037;52.010;4.446;2023-05-07T15:02:02;19.20;99.90
41294;DHT22;27037;52.010;4.446;2023-05-07T15:04:28;19.20;99.90
41294;DHT22;27037;52.010;4.446;2023-05-07T15:06:54;19.20;99.90
41294;DHT22;27037;52.010;4.446;2023-05-07T15:09:21;19.10;99.90
41294;DHT22;27037;52.010;4.446;2023-05-07T15:11:47;19.10;99.90
41294;DHT22;27037;52.010;4.446;2023-05-07T15:14:12;19.00;99.90
41294;DHT22;27037;52.010;4.446;2023-05-07T15:16:38;19.00;99.90
41294;DHT22;27037;52.010;4.446;2023-05-07T15:19:03;18.90;99.90
41294;DHT22;27037;52.010;4.446;2023-05-07T15:21:29;18.90;99.90
41294;DHT22;27037;52.010;4.446;2023-05-07T15:23:58;18.80;99.90
41294;DHT22;27037;52.010;4.446;2023-05-07T15:26:23;18.80;99.90
41294;DHT22;27037;52.010;4.446;2023-05-07T15:28:49;18.70;99.90
41294;DHT22;27037;52.010;4.446;2023-05-07T15:31:15;18.70;99.90
41294;DHT22;27037;52.010;4.446;2023-05-07T15:33:41;18.60;99.90
41294;DHT22;27037;52.010;4.446;2023-05-07T15:36:07;18.60;99.90
41294;DHT22;27037;52.010;4.446;2023-05-07T15:38:33;18.50;99.90